Tropical Cyclones
[Index]
Main Index Home Page Stock Weather Photos Extreme Storms Discussion Storm News and Storm Chasing Reports Tropical Cyclones / Hurricanes / Typhoons Weather Data and Links Wild Fires / Bushfires Weather Observation Techniques Weather Picture Catalogue Tornado Pictures and Reports Stock Video Footage and DVDs for sale
Season 1966-1967 Tropical Cyclone ELSIE Track Map
Season 1966-1967 Summaries: [BoM-AU] [JTWC-AU] [JTWC-SIO] [JTWC-SPAC] [JTWC-SH]
<<- Previous TC | JTWC 1966-1967 Season | Next TC ->>

click for intensity scale information  Lat/long Grid: Show Hide

 Date Labels: Show Hide

Joint Typhoon Warning Centre Cyclone Data

Name: ELSIE
Number: 630 / 6715

15 Jan 1967 00:00 UTC to 22 Jan 1967 18:00 UTC

    date/time    lat    long     hPa   cat  kts
1967-01-15 00   14.0   124.0                              
1967-01-15 06   13.9   123.7                              
1967-01-15 12   13.9   123.5                              
1967-01-15 18   13.9   123.2                              
1967-01-16 00   13.9   123.0                              
1967-01-16 06   14.0   122.6                              
1967-01-16 12   14.1   122.3                              
1967-01-16 18   14.3   122.1                              
1967-01-17 00   14.7   121.8                              
1967-01-17 06   15.4   121.0                              
1967-01-17 12   16.0   119.8                              
1967-01-17 18   16.5   118.3                              
1967-01-18 00   16.9   117.0                              
1967-01-18 06   17.1   116.1                              
1967-01-18 12   17.5   115.2                              
1967-01-18 18   18.1   113.9                              
1967-01-19 00   18.7   113.1                              
1967-01-19 06   19.3   113.1                              
1967-01-19 12   19.9   113.2                              
1967-01-19 18   20.5   113.1                              
1967-01-20 00   21.2   113.1                              
1967-01-20 06   22.2   113.4                              
1967-01-20 12   23.0   113.9                              
1967-01-20 18   23.7   114.5                              
1967-01-21 00   24.3   115.1                              
1967-01-21 06   24.8   115.6                              
1967-01-21 12   25.3   116.2                              
1967-01-21 18   25.7   116.7                              
1967-01-22 00   26.2   117.3                              
1967-01-22 06   26.7   118.0                              
1967-01-22 12   27.2   119.0                              
1967-01-22 18   27.7   120.0                              
Winds are 1-min average.

Tropical cyclone tracks developed by Michael Bath using data from the Joint Typhoon Warning Centre Best Tracks and Google Maps.


[Australian Severe Weather index] [Copyright Notice] [Email Contacts] [Search This Site] [Privacy Policy]
Document: tropical_cyclone_elsie.htm Updated: 18 September 2016